sensor_id;sensor_type;location;lat;lon;timestamp;pressure;altitude;pressure_sealevel;temperature;humidity
7407;BME280;3745;56.964;24.128;2023-05-03T00:01:29;101889.03;;;3.63;100.00
7407;BME280;3745;56.964;24.128;2023-05-03T00:03:55;101866.66;;;3.37;100.00
7407;BME280;3745;56.964;24.128;2023-05-03T00:06:21;101938.47;;;3.80;100.00
7407;BME280;3745;56.964;24.128;2023-05-03T00:08:47;101959.97;;;3.77;100.00
7407;BME280;3745;56.964;24.128;2023-05-03T00:11:12;101843.28;;;2.96;100.00
7407;BME280;3745;56.964;24.128;2023-05-03T00:13:38;101960.69;;;3.61;100.00
7407;BME280;3745;56.964;24.128;2023-05-03T00:16:05;101926.28;;;3.44;100.00
7407;BME280;3745;56.964;24.128;2023-05-03T00:18:30;101968.19;;;3.61;100.00
7407;BME280;3745;56.964;24.128;2023-05-03T00:20:57;101845.91;;;2.97;100.00
7407;BME280;3745;56.964;24.128;2023-05-03T00:23:24;101967.63;;;3.65;100.00
7407;BME280;3745;56.964;24.128;2023-05-03T00:25:57;101981.06;;;3.67;100.00
7407;BME280;3745;56.964;24.128;2023-05-03T00:28:23;101811.88;;;2.58;100.00
7407;BME280;3745;56.964;24.128;2023-05-03T00:30:49;101955.75;;;3.35;100.00
7407;BME280;3745;56.964;24.128;2023-05-03T00:33:15;101916.78;;;2.98;100.00
7407;BME280;3745;56.964;24.128;2023-05-03T00:35:41;102008.44;;;3.51;100.00
7407;BME280;3745;56.964;24.128;2023-05-03T00:38:07;102011.06;;;3.53;100.00
7407;BME280;3745;56.964;24.128;2023-05-03T00:40:33;101967.72;;;3.26;100.00
7407;BME280;3745;56.964;24.128;2023-05-03T00:42:59;101902.53;;;2.84;100.00
7407;BME280;3745;56.964;24.128;2023-05-03T00:45:25;101817.81;;;2.34;100.00
7407;BME280;3745;56.964;24.128;2023-05-03T00:47:51;102015.19;;;3.39;100.00
7407;BME280;3745;56.964;24.128;2023-05-03T00:50:17;101983.97;;;3.19;100.00
7407;BME280;3745;56.964;24.128;2023-05-03T00:52:42;102014.06;;;3.34;100.00
7407;BME280;3745;56.964;24.128;2023-05-03T00:55:10;101861.16;;;2.48;100.00
7407;BME280;3745;56.964;24.128;2023-05-03T00:57:37;101971.34;;;3.18;100.00
7407;BME280;3745;56.964;24.128;2023-05-03T01:00:03;101931.59;;;2.95;100.00
7407;BME280;3745;56.964;24.128;2023-05-03T01:02:29;101966.53;;;3.21;100.00
7407;BME280;3745;56.964;24.128;2023-05-03T01:04:55;101944.41;;;3.14;100.00
7407;BME280;3745;56.964;24.128;2023-05-03T01:10:43;101834.13;;;2.55;100.00
7407;BME280;3745;56.964;24.128;2023-05-03T01:13:33;101994.78;;;3.46;100.00
7407;BME280;3745;56.964;24.128;2023-05-03T01:16:05;101988.25;;;3.48;100.00
7407;BME280;3745;56.964;24.128;2023-05-03T01:18:37;101897.53;;;2.97;100.00
7407;BME280;3745;56.964;24.128;2023-05-03T01:21:04;101986.41;;;3.46;100.00
7407;BME280;3745;56.964;24.128;2023-05-03T01:23:55;101995.72;;;3.61;100.00
7407;BME280;3745;56.964;24.128;2023-05-03T01:26:23;101993.97;;;3.60;100.00
7407;BME280;3745;56.964;24.128;2023-05-03T01:28:50;101989.88;;;3.75;100.00
7407;BME280;3745;56.964;24.128;2023-05-03T01:31:33;101975.88;;;3.64;100.00
7407;BME280;3745;56.964;24.128;2023-05-03T01:34:09;101966.69;;;3.50;100.00
7407;BME280;3745;56.964;24.128;2023-05-03T01:36:41;101916.53;;;3.21;100.00
7407;BME280;3745;56.964;24.128;2023-05-03T01:39:13;101994.72;;;3.72;100.00
7407;BME280;3745;56.964;24.128;2023-05-03T01:41:42;102001.66;;;3.76;100.00
7407;BME280;3745;56.964;24.128;2023-05-03T01:44:08;101918.81;;;3.31;100.00
7407;BME280;3745;56.964;24.128;2023-05-03T01:46:41;101930.75;;;3.35;100.00
7407;BME280;3745;56.964;24.128;2023-05-03T01:49:07;101994.16;;;3.63;100.00
7407;BME280;3745;56.964;24.128;2023-05-03T01:51:33;101957.84;;;3.42;100.00
7407;BME280;3745;56.964;24.128;2023-05-03T01:53:58;101786.69;;;2.42;100.00
7407;BME280;3745;56.964;24.128;2023-05-03T01:56:24;101883.84;;;3.05;100.00
7407;BME280;3745;56.964;24.128;2023-05-03T01:58:50;101969.97;;;3.49;100.00
7407;BME280;3745;56.964;24.128;2023-05-03T02:01:16;101834.66;;;2.91;100.00
7407;BME280;3745;56.964;24.128;2023-05-03T02:03:41;101934.06;;;3.49;100.00
7407;BME280;3745;56.964;24.128;2023-05-03T02:06:07;101981.63;;;3.76;100.00
7407;BME280;3745;56.964;24.128;2023-05-03T02:08:32;101934.75;;;3.46;100.00
7407;BME280;3745;56.964;24.128;2023-05-03T02:10:58;101916.09;;;3.41;100.00
7407;BME280;3745;56.964;24.128;2023-05-03T02:13:24;101950.50;;;3.58;100.00
7407;BME280;3745;56.964;24.128;2023-05-03T02:15:49;101962.59;;;3.65;100.00
7407;BME280;3745;56.964;24.128;2023-05-03T02:18:15;101948.56;;;3.54;100.00
7407;BME280;3745;56.964;24.128;2023-05-03T02:20:45;101997.75;;;3.81;100.00
7407;BME280;3745;56.964;24.128;2023-05-03T02:23:11;101945.75;;;3.35;100.00
7407;BME280;3745;56.964;24.128;2023-05-03T02:25:37;101839.88;;;2.81;100.00
7407;BME280;3745;56.964;24.128;2023-05-03T02:28:03;101796.47;;;2.52;100.00
7407;BME280;3745;56.964;24.128;2023-05-03T02:30:29;101954.75;;;3.46;100.00
7407;BME280;3745;56.964;24.128;2023-05-03T02:32:55;101959.94;;;3.49;100.00
7407;BME280;3745;56.964;24.128;2023-05-03T02:35:20;101978.00;;;3.71;100.00
7407;BME280;3745;56.964;24.128;2023-05-03T02:37:46;101996.63;;;3.76;100.00
7407;BME280;3745;56.964;24.128;2023-05-03T02:40:12;101991.78;;;3.65;100.00
7407;BME280;3745;56.964;24.128;2023-05-03T02:42:39;101963.41;;;3.51;100.00
7407;BME280;3745;56.964;24.128;2023-05-03T02:45:05;101974.38;;;3.53;100.00
7407;BME280;3745;56.964;24.128;2023-05-03T02:47:30;101988.69;;;3.69;100.00
7407;BME280;3745;56.964;24.128;2023-05-03T02:49:56;101996.47;;;3.73;100.00
7407;BME280;3745;56.964;24.128;2023-05-03T02:52:21;101918.63;;;3.28;100.00
7407;BME280;3745;56.964;24.128;2023-05-03T02:54:47;101963.88;;;3.59;100.00
7407;BME280;3745;56.964;24.128;2023-05-03T02:57:14;101963.22;;;3.48;100.00
7407;BME280;3745;56.964;24.128;2023-05-03T02:59:39;101953.66;;;3.28;100.00
7407;BME280;3745;56.964;24.128;2023-05-03T03:02:05;101842.41;;;2.67;100.00
7407;BME280;3745;56.964;24.128;2023-05-03T03:04:31;102014.63;;;3.56;100.00
7407;BME280;3745;56.964;24.128;2023-05-03T03:06:57;101984.59;;;3.43;100.00
7407;BME280;3745;56.964;24.128;2023-05-03T03:09:22;101965.41;;;3.29;100.00
7407;BME280;3745;56.964;24.128;2023-05-03T03:11:50;101966.34;;;3.31;100.00
7407;BME280;3745;56.964;24.128;2023-05-03T03:14:16;102022.88;;;3.55;100.00
7407;BME280;3745;56.964;24.128;2023-05-03T03:16:43;101972.13;;;3.17;100.00
7407;BME280;3745;56.964;24.128;2023-05-03T03:19:09;101855.09;;;2.44;100.00
7407;BME280;3745;56.964;24.128;2023-05-03T03:21:35;101961.66;;;3.09;100.00
7407;BME280;3745;56.964;24.128;2023-05-03T03:24:02;102029.81;;;3.46;100.00
7407;BME280;3745;56.964;24.128;2023-05-03T03:26:28;101958.84;;;3.05;100.00
7407;BME280;3745;56.964;24.128;2023-05-03T03:28:54;102026.19;;;3.41;100.00
7407;BME280;3745;56.964;24.128;2023-05-03T03:31:20;101992.69;;;3.39;100.00
7407;BME280;3745;56.964;24.128;2023-05-03T03:33:47;101953.84;;;3.05;100.00
7407;BME280;3745;56.964;24.128;2023-05-03T03:36:13;102042.72;;;3.52;100.00
7407;BME280;3745;56.964;24.128;2023-05-03T03:38:39;102014.06;;;3.34;100.00
7407;BME280;3745;56.964;24.128;2023-05-03T03:41:06;102023.69;;;3.41;100.00
7407;BME280;3745;56.964;24.128;2023-05-03T03:43:32;101970.50;;;3.17;100.00
7407;BME280;3745;56.964;24.128;2023-05-03T03:45:58;102023.28;;;3.48;100.00
7407;BME280;3745;56.964;24.128;2023-05-03T03:48:24;101980.22;;;3.26;100.00
7407;BME280;3745;56.964;24.128;2023-05-03T03:50:50;102064.34;;;3.78;100.00
7407;BME280;3745;56.964;24.128;2023-05-03T03:53:15;102052.09;;;3.82;100.00
7407;BME280;3745;56.964;24.128;2023-05-03T03:55:41;102044.78;;;3.72;100.00
7407;BME280;3745;56.964;24.128;2023-05-03T03:58:07;102071.00;;;4.05;100.00
7407;BME280;3745;56.964;24.128;2023-05-03T04:00:33;102076.28;;;4.10;100.00
7407;BME280;3745;56.964;24.128;2023-05-03T04:03:03;102037.25;;;3.86;100.00
7407;BME280;3745;56.964;24.128;2023-05-03T04:05:29;101892.50;;;3.10;100.00
7407;BME280;3745;56.964;24.128;2023-05-03T04:07:55;102083.53;;;4.33;100.00
7407;BME280;3745;56.964;24.128;2023-05-03T04:10:21;101856.31;;;3.18;100.00
7407;BME280;3745;56.964;24.128;2023-05-03T04:12:46;102077.50;;;4.44;100.00
7407;BME280;3745;56.964;24.128;2023-05-03T04:15:12;102086.25;;;4.51;100.00
7407;BME280;3745;56.964;24.128;2023-05-03T04:17:37;101974.88;;;3.75;100.00
7407;BME280;3745;56.964;24.128;2023-05-03T04:20:03;102054.00;;;4.42;100.00
7407;BME280;3745;56.964;24.128;2023-05-03T04:22:32;102032.38;;;4.29;100.00
7407;BME280;3745;56.964;24.128;2023-05-03T04:24:58;102062.28;;;4.41;100.00
7407;BME280;3745;56.964;24.128;2023-05-03T04:27:25;102100.19;;;4.60;100.00
7407;BME280;3745;56.964;24.128;2023-05-03T04:29:52;102098.78;;;4.65;100.00
7407;BME280;3745;56.964;24.128;2023-05-03T04:32:18;102095.88;;;4.72;100.00
7407;BME280;3745;56.964;24.128;2023-05-03T04:34:50;102100.63;;;4.82;100.00
7407;BME280;3745;56.964;24.128;2023-05-03T04:37:17;101963.66;;;3.97;100.00
7407;BME280;3745;56.964;24.128;2023-05-03T04:39:45;102003.63;;;4.10;100.00
7407;BME280;3745;56.964;24.128;2023-05-03T04:42:11;102068.34;;;4.59;100.00
7407;BME280;3745;56.964;24.128;2023-05-03T04:44:41;102027.53;;;4.47;100.00
7407;BME280;3745;56.964;24.128;2023-05-03T04:47:07;102099.25;;;4.87;100.00
7407;BME280;3745;56.964;24.128;2023-05-03T04:49:33;102100.53;;;4.96;100.00
7407;BME280;3745;56.964;24.128;2023-05-03T04:51:59;102097.59;;;5.03;100.00
7407;BME280;3745;56.964;24.128;2023-05-03T04:54:25;102030.84;;;4.75;100.00
7407;BME280;3745;56.964;24.128;2023-05-03T04:56:51;102026.88;;;4.79;100.00
7407;BME280;3745;56.964;24.128;2023-05-03T04:59:18;102087.41;;;5.29;100.00
7407;BME280;3745;56.964;24.128;2023-05-03T05:01:43;102069.56;;;5.24;100.00
7407;BME280;3745;56.964;24.128;2023-05-03T05:04:09;102097.81;;;5.51;100.00
7407;BME280;3745;56.964;24.128;2023-05-03T05:06:34;102097.19;;;5.55;100.00
7407;BME280;3745;56.964;24.128;2023-05-03T05:09:00;102107.91;;;5.67;100.00
7407;BME280;3745;56.964;24.128;2023-05-03T05:11:25;102100.94;;;5.92;100.00
7407;BME280;3745;56.964;24.128;2023-05-03T05:13:51;102108.66;;;6.12;100.00
7407;BME280;3745;56.964;24.128;2023-05-03T05:16:17;102039.66;;;5.74;100.00
7407;BME280;3745;56.964;24.128;2023-05-03T05:18:43;102042.53;;;5.82;100.00
7407;BME280;3745;56.964;24.128;2023-05-03T05:21:09;102108.03;;;6.32;100.00
7407;BME280;3745;56.964;24.128;2023-05-03T05:23:34;102086.09;;;6.13;100.00
7407;BME280;3745;56.964;24.128;2023-05-03T05:26:00;102038.75;;;6.21;100.00
7407;BME280;3745;56.964;24.128;2023-05-03T05:28:27;102055.69;;;6.57;100.00
7407;BME280;3745;56.964;24.128;2023-05-03T05:30:52;102000.25;;;6.22;100.00
7407;BME280;3745;56.964;24.128;2023-05-03T05:33:18;102109.38;;;6.91;100.00
7407;BME280;3745;56.964;24.128;2023-05-03T05:35:46;102009.50;;;6.39;100.00
7407;BME280;3745;56.964;24.128;2023-05-03T05:38:14;101940.22;;;5.78;100.00
7407;BME280;3745;56.964;24.128;2023-05-03T05:40:41;102117.13;;;6.78;100.00
7407;BME280;3745;56.964;24.128;2023-05-03T05:43:07;102091.81;;;6.43;100.00
7407;BME280;3745;56.964;24.128;2023-05-03T05:45:34;102033.16;;;5.94;100.00
7407;BME280;3745;56.964;24.128;2023-05-03T05:47:59;102083.50;;;6.44;100.00
7407;BME280;3745;56.964;24.128;2023-05-03T05:50:25;101942.19;;;5.99;100.00
7407;BME280;3745;56.964;24.128;2023-05-03T05:52:51;102132.16;;;7.11;100.00
7407;BME280;3745;56.964;24.128;2023-05-03T05:55:17;102002.75;;;6.38;100.00
7407;BME280;3745;56.964;24.128;2023-05-03T05:57:43;102101.94;;;7.11;100.00
7407;BME280;3745;56.964;24.128;2023-05-03T06:00:09;102131.25;;;7.44;100.00
7407;BME280;3745;56.964;24.128;2023-05-03T06:02:42;102136.34;;;7.63;100.00
7407;BME280;3745;56.964;24.128;2023-05-03T06:05:09;102127.63;;;7.74;100.00
7407;BME280;3745;56.964;24.128;2023-05-03T06:07:35;102135.75;;;7.86;100.00
7407;BME280;3745;56.964;24.128;2023-05-03T06:10:03;102137.19;;;7.99;100.00
7407;BME280;3745;56.964;24.128;2023-05-03T06:12:29;102124.13;;;8.27;100.00
7407;BME280;3745;56.964;24.128;2023-05-03T06:14:55;102136.09;;;8.69;100.00
7407;BME280;3745;56.964;24.128;2023-05-03T06:17:21;102130.47;;;8.95;100.00
7407;BME280;3745;56.964;24.128;2023-05-03T06:19:48;102130.34;;;8.92;100.00
7407;BME280;3745;56.964;24.128;2023-05-03T06:22:17;102127.66;;;9.08;100.00
7407;BME280;3745;56.964;24.128;2023-05-03T06:24:42;101995.91;;;8.55;100.00
7407;BME280;3745;56.964;24.128;2023-05-03T06:27:08;102142.63;;;9.24;100.00
7407;BME280;3745;56.964;24.128;2023-05-03T06:29:33;102100.28;;;8.98;100.00
7407;BME280;3745;56.964;24.128;2023-05-03T06:31:59;102045.38;;;8.72;100.00
7407;BME280;3745;56.964;24.128;2023-05-03T06:34:25;102142.81;;;9.50;100.00
7407;BME280;3745;56.964;24.128;2023-05-03T06:36:51;102036.13;;;8.93;100.00
7407;BME280;3745;56.964;24.128;2023-05-03T06:39:17;102140.19;;;9.69;100.00
7407;BME280;3745;56.964;24.128;2023-05-03T06:41:43;101991.72;;;8.98;100.00
7407;BME280;3745;56.964;24.128;2023-05-03T06:44:09;102055.63;;;9.61;100.00
7407;BME280;3745;56.964;24.128;2023-05-03T06:46:34;102154.78;;;10.43;100.00
7407;BME280;3745;56.964;24.128;2023-05-03T06:49:00;102128.19;;;10.54;100.00
7407;BME280;3745;56.964;24.128;2023-05-03T06:51:26;102160.41;;;10.58;100.00
7407;BME280;3745;56.964;24.128;2023-05-03T06:53:59;102147.84;;;10.61;100.00
7407;BME280;3745;56.964;24.128;2023-05-03T06:56:26;102121.78;;;10.40;100.00
7407;BME280;3745;56.964;24.128;2023-05-03T06:58:53;102114.81;;;10.58;100.00
7407;BME280;3745;56.964;24.128;2023-05-03T07:01:18;102035.47;;;10.08;100.00
7407;BME280;3745;56.964;24.128;2023-05-03T07:03:45;102105.53;;;10.58;100.00
7407;BME280;3745;56.964;24.128;2023-05-03T07:06:11;102125.34;;;10.95;100.00
7407;BME280;3745;56.964;24.128;2023-05-03T07:08:37;102118.88;;;10.78;100.00
7407;BME280;3745;56.964;24.128;2023-05-03T07:11:02;102158.84;;;11.10;100.00
7407;BME280;3745;56.964;24.128;2023-05-03T07:13:31;102022.53;;;10.24;100.00
7407;BME280;3745;56.964;24.128;2023-05-03T07:15:57;102124.97;;;10.58;100.00
7407;BME280;3745;56.964;24.128;2023-05-03T07:18:23;102127.84;;;10.45;100.00
7407;BME280;3745;56.964;24.128;2023-05-03T07:20:49;102161.25;;;10.82;100.00
7407;BME280;3745;56.964;24.128;2023-05-03T07:23:14;102181.81;;;10.91;100.00
7407;BME280;3745;56.964;24.128;2023-05-03T07:25:43;102170.94;;;10.70;100.00
7407;BME280;3745;56.964;24.128;2023-05-03T07:28:10;102176.00;;;10.70;100.00
7407;BME280;3745;56.964;24.128;2023-05-03T07:30:36;102179.44;;;10.72;100.00
7407;BME280;3745;56.964;24.128;2023-05-03T07:33:02;102050.31;;;9.99;100.00
7407;BME280;3745;56.964;24.128;2023-05-03T07:35:28;102086.28;;;10.14;100.00
7407;BME280;3745;56.964;24.128;2023-05-03T07:37:54;102012.84;;;9.89;100.00
7407;BME280;3745;56.964;24.128;2023-05-03T07:40:24;102086.63;;;10.23;100.00
7407;BME280;3745;56.964;24.128;2023-05-03T07:42:49;102181.28;;;10.76;100.00
7407;BME280;3745;56.964;24.128;2023-05-03T07:45:15;102178.59;;;10.71;100.00
7407;BME280;3745;56.964;24.128;2023-05-03T07:47:41;102169.44;;;10.75;100.00
7407;BME280;3745;56.964;24.128;2023-05-03T07:50:07;102057.75;;;10.18;100.00
7407;BME280;3745;56.964;24.128;2023-05-03T07:52:39;102137.28;;;10.98;100.00
7407;BME280;3745;56.964;24.128;2023-05-03T07:55:08;102144.44;;;11.09;100.00
7407;BME280;3745;56.964;24.128;2023-05-03T07:57:34;102152.44;;;11.21;100.00
7407;BME280;3745;56.964;24.128;2023-05-03T08:00:01;102138.56;;;11.10;100.00
7407;BME280;3745;56.964;24.128;2023-05-03T08:02:28;102171.03;;;11.49;100.00
7407;BME280;3745;56.964;24.128;2023-05-03T08:04:54;102073.13;;;10.99;100.00
7407;BME280;3745;56.964;24.128;2023-05-03T08:07:20;102180.88;;;11.65;100.00
7407;BME280;3745;56.964;24.128;2023-05-03T08:09:45;102144.91;;;11.24;100.00
7407;BME280;3745;56.964;24.128;2023-05-03T08:12:13;102154.06;;;11.19;100.00
7407;BME280;3745;56.964;24.128;2023-05-03T08:14:38;102029.69;;;10.61;100.00
7407;BME280;3745;56.964;24.128;2023-05-03T08:17:04;102106.13;;;11.00;100.00
7407;BME280;3745;56.964;24.128;2023-05-03T08:19:41;102174.84;;;11.61;100.00
7407;BME280;3745;56.964;24.128;2023-05-03T08:22:08;102176.28;;;11.80;100.00
7407;BME280;3745;56.964;24.128;2023-05-03T08:24:35;102173.50;;;11.99;100.00
7407;BME280;3745;56.964;24.128;2023-05-03T08:27:01;101974.06;;;10.63;100.00
7407;BME280;3745;56.964;24.128;2023-05-03T08:29:27;102084.13;;;10.99;100.00
7407;BME280;3745;56.964;24.128;2023-05-03T08:31:57;102050.09;;;10.91;100.00
7407;BME280;3745;56.964;24.128;2023-05-03T08:34:24;102020.81;;;10.99;100.00
7407;BME280;3745;56.964;24.128;2023-05-03T08:36:52;102065.47;;;11.51;100.00
7407;BME280;3745;56.964;24.128;2023-05-03T08:39:21;102003.53;;;11.14;100.00
7407;BME280;3745;56.964;24.128;2023-05-03T08:41:52;102152.66;;;11.81;100.00
7407;BME280;3745;56.964;24.128;2023-05-03T08:44:23;102013.34;;;10.77;100.00
7407;BME280;3745;56.964;24.128;2023-05-03T08:46:58;101994.81;;;10.78;100.00
7407;BME280;3745;56.964;24.128;2023-05-03T08:49:27;101979.81;;;10.84;100.00
7407;BME280;3745;56.964;24.128;2023-05-03T08:51:55;102025.91;;;11.27;100.00
7407;BME280;3745;56.964;24.128;2023-05-03T08:54:22;102169.41;;;12.32;96.97
7407;BME280;3745;56.964;24.128;2023-05-03T08:56:49;102174.91;;;12.47;92.90
7407;BME280;3745;56.964;24.128;2023-05-03T08:59:15;102109.91;;;12.24;92.36
7407;BME280;3745;56.964;24.128;2023-05-03T09:01:43;102099.25;;;12.36;89.69
7407;BME280;3745;56.964;24.128;2023-05-03T09:04:10;102040.88;;;11.75;81.23
7407;BME280;3745;56.964;24.128;2023-05-03T09:06:42;102176.03;;;12.27;71.89
7407;BME280;3745;56.964;24.128;2023-05-03T09:09:10;102034.78;;;11.41;68.64
7407;BME280;3745;56.964;24.128;2023-05-03T09:11:38;102078.41;;;11.60;70.84
7407;BME280;3745;56.964;24.128;2023-05-03T09:14:19;102165.34;;;11.81;76.42
7407;BME280;3745;56.964;24.128;2023-05-03T09:16:45;102184.00;;;11.58;81.08
7407;BME280;3745;56.964;24.128;2023-05-03T09:19:14;102180.13;;;11.17;80.47
7407;BME280;3745;56.964;24.128;2023-05-03T09:21:42;102183.00;;;11.01;82.03
7407;BME280;3745;56.964;24.128;2023-05-03T09:24:16;102193.88;;;10.98;84.89
7407;BME280;3745;56.964;24.128;2023-05-03T09:26:43;102093.84;;;10.37;93.41
7407;BME280;3745;56.964;24.128;2023-05-03T09:29:33;102107.63;;;10.21;100.00
7407;BME280;3745;56.964;24.128;2023-05-03T09:32:26;102186.25;;;10.73;100.00
7407;BME280;3745;56.964;24.128;2023-05-03T09:35:08;101993.88;;;9.54;100.00
7407;BME280;3745;56.964;24.128;2023-05-03T09:37:38;101991.75;;;9.65;100.00
7407;BME280;3745;56.964;24.128;2023-05-03T09:40:06;102190.06;;;11.11;100.00
7407;BME280;3745;56.964;24.128;2023-05-03T09:42:35;101956.47;;;9.92;100.00
7407;BME280;3745;56.964;24.128;2023-05-03T09:45:11;102101.16;;;11.03;100.00
7407;BME280;3745;56.964;24.128;2023-05-03T09:47:53;102128.22;;;11.58;100.00
7407;BME280;3745;56.964;24.128;2023-05-03T09:50:22;102051.19;;;11.53;100.00
7407;BME280;3745;56.964;24.128;2023-05-03T09:52:48;102089.88;;;12.33;98.93
7407;BME280;3745;56.964;24.128;2023-05-03T09:55:15;102101.06;;;12.73;94.45
7407;BME280;3745;56.964;24.128;2023-05-03T09:57:42;102011.91;;;12.29;86.18
7407;BME280;3745;56.964;24.128;2023-05-03T10:00:15;101979.97;;;12.37;88.61
7407;BME280;3745;56.964;24.128;2023-05-03T10:02:52;102075.53;;;13.01;80.21
7407;BME280;3745;56.964;24.128;2023-05-03T10:05:20;101941.13;;;12.41;78.08
7407;BME280;3745;56.964;24.128;2023-05-03T10:07:49;102080.22;;;13.20;77.61
7407;BME280;3745;56.964;24.128;2023-05-03T10:10:18;101924.06;;;12.02;71.22
7407;BME280;3745;56.964;24.128;2023-05-03T10:12:48;102163.91;;;12.80;72.62
7407;BME280;3745;56.964;24.128;2023-05-03T10:15:19;102083.63;;;12.21;73.31
7407;BME280;3745;56.964;24.128;2023-05-03T10:17:51;102166.31;;;12.42;74.77
7407;BME280;3745;56.964;24.128;2023-05-03T10:23:10;101955.16;;;10.26;82.15
7407;BME280;3745;56.964;24.128;2023-05-03T10:25:37;102170.19;;;11.23;92.58
7407;BME280;3745;56.964;24.128;2023-05-03T10:30:39;102164.56;;;10.81;100.00
7407;BME280;3745;56.964;24.128;2023-05-03T10:35:52;102009.56;;;9.23;100.00
7407;BME280;3745;56.964;24.128;2023-05-03T10:38:28;102137.31;;;9.82;100.00
7407;BME280;3745;56.964;24.128;2023-05-03T10:40:55;102236.13;;;10.52;100.00
7407;BME280;3745;56.964;24.128;2023-05-03T10:46:07;101990.06;;;8.37;100.00
7407;BME280;3745;56.964;24.128;2023-05-03T10:48:36;102225.75;;;9.60;100.00
7407;BME280;3745;56.964;24.128;2023-05-03T10:51:30;102224.41;;;9.68;100.00
7407;BME280;3745;56.964;24.128;2023-05-03T10:54:00;102024.69;;;8.60;100.00
7407;BME280;3745;56.964;24.128;2023-05-03T10:56:29;102190.25;;;9.57;100.00
7407;BME280;3745;56.964;24.128;2023-05-03T10:58:55;102104.63;;;9.21;100.00
7407;BME280;3745;56.964;24.128;2023-05-03T11:01:25;102049.56;;;8.92;100.00
7407;BME280;3745;56.964;24.128;2023-05-03T11:08:57;102108.19;;;9.47;100.00
7407;BME280;3745;56.964;24.128;2023-05-03T11:11:23;102223.25;;;10.23;100.00
7407;BME280;3745;56.964;24.128;2023-05-03T11:13:50;102087.69;;;9.62;100.00
7407;BME280;3745;56.964;24.128;2023-05-03T11:16:16;102125.53;;;10.05;100.00
7407;BME280;3745;56.964;24.128;2023-05-03T11:18:42;102066.28;;;9.76;100.00
7407;BME280;3745;56.964;24.128;2023-05-03T11:21:10;102083.75;;;9.92;100.00
7407;BME280;3745;56.964;24.128;2023-05-03T11:23:37;102060.75;;;10.08;100.00
7407;BME280;3745;56.964;24.128;2023-05-03T11:26:09;102215.78;;;11.47;100.00
7407;BME280;3745;56.964;24.128;2023-05-03T11:28:42;101971.94;;;10.24;100.00
7407;BME280;3745;56.964;24.128;2023-05-03T11:31:11;101951.91;;;10.30;100.00
7407;BME280;3745;56.964;24.128;2023-05-03T11:33:38;102210.44;;;11.91;100.00
7407;BME280;3745;56.964;24.128;2023-05-03T11:36:06;102172.03;;;11.54;100.00
7407;BME280;3745;56.964;24.128;2023-05-03T11:38:35;102218.91;;;11.90;100.00
7407;BME280;3745;56.964;24.128;2023-05-03T11:41:19;102159.34;;;11.79;100.00
7407;BME280;3745;56.964;24.128;2023-05-03T11:43:49;102226.69;;;12.24;100.00
7407;BME280;3745;56.964;24.128;2023-05-03T11:46:25;102151.59;;;11.74;100.00
7407;BME280;3745;56.964;24.128;2023-05-03T11:48:54;102078.97;;;10.96;100.00
7407;BME280;3745;56.964;24.128;2023-05-03T11:51:21;102239.63;;;11.77;100.00
7407;BME280;3745;56.964;24.128;2023-05-03T11:53:47;101987.31;;;10.30;100.00
7407;BME280;3745;56.964;24.128;2023-05-03T11:56:13;101997.44;;;10.30;100.00
7407;BME280;3745;56.964;24.128;2023-05-03T11:59:01;102077.13;;;10.42;100.00
7407;BME280;3745;56.964;24.128;2023-05-03T12:01:32;102246.00;;;11.40;100.00
7407;BME280;3745;56.964;24.128;2023-05-03T12:03:59;102133.19;;;10.76;100.00
7407;BME280;3745;56.964;24.128;2023-05-03T12:06:27;102158.19;;;10.92;100.00
7407;BME280;3745;56.964;24.128;2023-05-03T12:08:57;102147.16;;;10.90;100.00
7407;BME280;3745;56.964;24.128;2023-05-03T12:11:23;101965.81;;;9.94;100.00
7407;BME280;3745;56.964;24.128;2023-05-03T12:14:00;102235.78;;;11.64;100.00
7407;BME280;3745;56.964;24.128;2023-05-03T12:16:27;102229.31;;;11.72;100.00
7407;BME280;3745;56.964;24.128;2023-05-03T12:19:04;102089.59;;;11.11;100.00
7407;BME280;3745;56.964;24.128;2023-05-03T12:21:48;102155.91;;;11.77;100.00
7407;BME280;3745;56.964;24.128;2023-05-03T12:24:13;102042.56;;;11.19;100.00
7407;BME280;3745;56.964;24.128;2023-05-03T12:26:46;102260.97;;;12.38;100.00
7407;BME280;3745;56.964;24.128;2023-05-03T12:29:15;102163.81;;;11.61;100.00
7407;BME280;3745;56.964;24.128;2023-05-03T12:31:41;102260.16;;;12.11;100.00
7407;BME280;3745;56.964;24.128;2023-05-03T12:34:07;102242.06;;;11.74;100.00
7407;BME280;3745;56.964;24.128;2023-05-03T12:36:33;102275.41;;;11.61;100.00
7407;BME280;3745;56.964;24.128;2023-05-03T12:39:00;102170.66;;;10.86;100.00
7407;BME280;3745;56.964;24.128;2023-05-03T12:41:27;102168.00;;;10.83;100.00
7407;BME280;3745;56.964;24.128;2023-05-03T12:43:58;102165.66;;;10.87;100.00
7407;BME280;3745;56.964;24.128;2023-05-03T12:46:24;102277.81;;;11.32;100.00
7407;BME280;3745;56.964;24.128;2023-05-03T12:48:52;102221.47;;;10.91;100.00
7407;BME280;3745;56.964;24.128;2023-05-03T12:51:18;102165.47;;;10.58;100.00
7407;BME280;3745;56.964;24.128;2023-05-03T12:53:47;102171.84;;;10.72;100.00
7407;BME280;3745;56.964;24.128;2023-05-03T12:56:13;102267.25;;;11.20;100.00
7407;BME280;3745;56.964;24.128;2023-05-03T12:58:39;102120.09;;;10.16;100.00
7407;BME280;3745;56.964;24.128;2023-05-03T13:01:09;102277.59;;;11.26;100.00
7407;BME280;3745;56.964;24.128;2023-05-03T13:03:36;102020.69;;;9.73;100.00
7407;BME280;3745;56.964;24.128;2023-05-03T13:06:07;102286.09;;;11.52;100.00
7407;BME280;3745;56.964;24.128;2023-05-03T13:08:33;102288.56;;;11.25;100.00
7407;BME280;3745;56.964;24.128;2023-05-03T13:11:00;102296.28;;;11.28;100.00
7407;BME280;3745;56.964;24.128;2023-05-03T13:13:25;102294.03;;;11.12;100.00
7407;BME280;3745;56.964;24.128;2023-05-03T13:15:52;102105.38;;;9.84;100.00
7407;BME280;3745;56.964;24.128;2023-05-03T13:18:18;102050.25;;;9.75;100.00
7407;BME280;3745;56.964;24.128;2023-05-03T13:20:47;102125.34;;;10.00;100.00